Shahrekord Airport

Airport
ICAO code: 
OIFS
IATA Code: 
CQD
Summary
ICAO Region: 
MID
Territory: 
Location: 
Shahrekord, Chaharmahal and Bakhtiari Province
Serving: 
Shahrekord
Elevation: 
6723 ft
Coordinates: 
Aerial View: 
32° 17' 40.579" N, 50° 50' 15.852" E
Metar
Observation
OIFS 030800Z 19010KT CAVOK 36/M09 Q1011
Station
Shahre-Kord
Date/Time
2022-07-03 08:00:00
Wind direction
190°
Wind speed
10 kts
Lowest cloud amount
clouds and visibility OK
Temperature
36°C
Dew point
-9°C
Humidity
5%
QNH
1011 hPa
Weather condition
n/a

Airport serving Shahr-e Kord, Iran.

Climatology

Cold Semi-arid climate (Köppen climate classification BSk).

Runways

Designator Length Width Surface Rops
14/32 3298 45 ASP No/No
Airport map: 
Aerial View: 

SKYbrary Partners:

Safety knowledge contributed by: